首页
METAR-TAF:

METAR-TAF

机场 :

萨尔瓦多奥斯卡·阿努尔福·罗梅罗-伊-加尔达梅斯主教国际机场

萨尔瓦多, 萨尔瓦多

纬度: 13-26N, 经度: 089-03W, 海拔: 25米

当前天气观测

该预报发布于20分钟前的13:50 UTC
风速8节,风向东北
温度 29°C
湿度 62%
气压 1012 hPa
能见度10公里或以上
1500米以下无云,无积雨云

METAR: MSLP 201350Z 05008KT CAVOK 29/21 Q1011 A2987 NOSIG

时间: 08:10 (14:10 UTC)

预报

该预报发布于4小时和45分钟前的09:25 UTC
预报有效从20日的 12点(UTC)到 21日的 12点(UTC)
风速5节,风向东北
能见度10公里或以上
1500米以下无云,无积雨云
从 20日的 1800点(UTC)
风速8节,风向西南
能见度10公里或以上
少量云层高于6000英尺
从 21日的 0000点(UTC)
风速6节,风向北转东北
能见度10公里或以上
1500米以下无云,无积雨云

TAF: MSLP 200925Z 2012/2112 05005KT CAVOK TX34/2019Z TN24/2012Z FM201800 23008KT 9999 FEW060 FM210000 02006KT CAVOK

超过4000个机场的气象观测和天气预报(METAR&TAF报告)。

可查询的气象台以黄色和红色小点在地图上表示。

将鼠标移到小点上方,可查看气象台名称。

然后点击查看天气观测和预报。

如需切换地图:点击带黑十字的绿色按钮放大地图;点击带横线的绿色按钮缩小地图;或者点击绿色箭头查看邻近地区的地图。


METAR-TAF: